Time;durP1;ratioP1;P1;durP2;ratioP2;P2;SDS_P1;SDS_P2;PMS_P1;PMS_P2;Temp;Humidity;BMP_temperature;BMP_pressure;BME280_temperature;BME280_humidity;BME280_pressure;Samples;Min_cycle;Max_cycle;Signal;HPM_P1;HPM_P2
2022/12/13 00:00:18;;;;;;;54.45;22.17;;;;;;;;;;5096523;28;20032;-67
2022/12/13 00:02:45;;;;;;;47.25;21.17;;;;;;;;;;5102358;28;20051;-67
2022/12/13 00:05:11;;;;;;;48.80;22.50;;;;;;;;;;5080290;28;20161;-67
2022/12/13 00:07:37;;;;;;;55.40;20.80;;;;;;;;;;5110552;28;20136;-67
2022/12/13 00:10:04;;;;;;;48.33;20.60;;;;;;;;;;5100071;28;20062;-67
2022/12/13 00:12:30;;;;;;;51.85;21.77;;;;;;;;;;5094268;28;20051;-68
2022/12/13 00:14:56;;;;;;;55.58;22.20;;;;;;;;;;5111871;28;20043;-68
2022/12/13 00:17:23;;;;;;;50.20;21.02;;;;;;;;;;5094194;28;20044;-68
2022/12/13 00:19:50;;;;;;;53.33;22.58;;;;;;;;;;5091177;28;20043;-68
2022/12/13 00:22:15;;;;;;;50.95;21.55;;;;;;;;;;5104473;28;20052;-68
2022/12/13 00:24:42;;;;;;;56.60;23.10;;;;;;;;;;5089947;28;20044;-69
2022/12/13 00:27:08;;;;;;;49.75;21.63;;;;;;;;;;5083591;28;20061;-68
2022/12/13 00:29:34;;;;;;;51.28;22.08;;;;;;;;;;5076576;28;20127;-69
2022/12/13 00:32:00;;;;;;;47.40;20.30;;;;;;;;;;5076152;28;20048;-68
2022/12/13 00:34:26;;;;;;;48.45;20.25;;;;;;;;;;5093898;28;20380;-69
2022/12/13 00:36:53;;;;;;;52.80;22.00;;;;;;;;;;5099252;28;20039;-68
2022/12/13 00:39:19;;;;;;;48.85;21.45;;;;;;;;;;5091342;28;20040;-68
2022/12/13 00:41:46;;;;;;;51.97;22.63;;;;;;;;;;5098619;28;20052;-68
2022/12/13 00:44:12;;;;;;;64.82;23.38;;;;;;;;;;5100922;28;20043;-68
2022/12/13 00:46:39;;;;;;;57.00;24.23;;;;;;;;;;5083816;28;20048;-68
2022/12/13 00:49:05;;;;;;;53.15;24.77;;;;;;;;;;5091204;28;20040;-68
2022/12/13 00:51:32;;;;;;;51.67;22.05;;;;;;;;;;5082625;28;20036;-68
2022/12/13 00:53:58;;;;;;;54.83;23.63;;;;;;;;;;5081153;28;20054;-68
2022/12/13 00:56:26;;;;;;;54.05;22.75;;;;;;;;;;5094567;28;20036;-69
2022/12/13 00:59:01;;;;;;;54.75;21.30;;;;;;;;;;5069486;22;20056;-68
2022/12/13 01:01:39;;;;;;;55.28;22.23;;;;;;;;;;5045803;28;20498;-69
2022/12/13 01:04:06;;;;;;;52.10;22.70;;;;;;;;;;5051856;28;20065;-69
2022/12/13 01:06:35;;;;;;;54.15;23.77;;;;;;;;;;5052173;28;20053;-69
2022/12/13 01:09:01;;;;;;;56.47;23.40;;;;;;;;;;5051091;28;20368;-69
2022/12/13 01:14:25;;;;;;;53.70;23.65;;;;;;;;;;5068492;22;20045;-69
2022/12/13 01:16:54;;;;;;;52.72;23.33;;;;;;;;;;5052223;28;20053;-69
2022/12/13 01:19:21;;;;;;;53.65;24.52;;;;;;;;;;5054880;28;20119;-69
2022/12/13 01:21:47;;;;;;;52.63;22.15;;;;;;;;;;5067823;28;20051;-69
2022/12/13 01:24:14;;;;;;;52.25;21.80;;;;;;;;;;5032780;28;20063;-69
2022/12/13 01:26:40;;;;;;;58.90;22.42;;;;;;;;;;5044267;28;20053;-69
2022/12/13 01:29:07;;;;;;;49.85;20.80;;;;;;;;;;5036685;28;20036;-69
2022/12/13 01:31:33;;;;;;;52.40;22.08;;;;;;;;;;5053148;28;20358;-69
2022/12/13 01:33:59;;;;;;;54.40;22.17;;;;;;;;;;5065972;28;20044;-69
2022/12/13 01:36:25;;;;;;;52.28;21.92;;;;;;;;;;5069485;28;20058;-69
2022/12/13 01:38:51;;;;;;;51.28;21.83;;;;;;;;;;5066024;28;20040;-69
2022/12/13 01:41:20;;;;;;;53.00;22.05;;;;;;;;;;5045874;28;20048;-69
2022/12/13 01:43:46;;;;;;;52.13;21.63;;;;;;;;;;5052951;28;20059;-69
2022/12/13 01:46:12;;;;;;;47.65;21.60;;;;;;;;;;5054414;28;20040;-69
2022/12/13 01:48:40;;;;;;;43.28;19.98;;;;;;;;;;5054005;28;20044;-69
2022/12/13 01:51:08;;;;;;;44.55;20.70;;;;;;;;;;5050994;28;20052;-69
2022/12/13 01:53:36;;;;;;;48.50;21.65;;;;;;;;;;5053102;28;20121;-69
2022/12/13 01:56:04;;;;;;;43.92;20.08;;;;;;;;;;5032538;28;20033;-69
2022/12/13 01:58:30;;;;;;;50.88;20.48;;;;;;;;;;5046019;28;20044;-69
2022/12/13 02:00:58;;;;;;;52.20;21.88;;;;;;;;;;5034088;28;20120;-69
2022/12/13 02:03:24;;;;;;;55.55;21.23;;;;;;;;;;5052366;28;20041;-69
2022/12/13 02:06:06;;;;;;;51.42;22.55;;;;;;;;;;5067881;28;20044;-69
2022/12/13 02:08:33;;;;;;;49.08;21.55;;;;;;;;;;5022640;28;20065;-69
2022/12/13 02:11:00;;;;;;;45.30;21.40;;;;;;;;;;5034411;28;20037;-69
2022/12/13 02:13:26;;;;;;;50.97;19.70;;;;;;;;;;5049454;28;20056;-69
2022/12/13 02:16:10;;;;;;;47.38;20.00;;;-4.00;99.90;;;;;;5033516;28;20139;-69
2022/12/13 02:18:36;;;;;;;42.13;19.98;;;;;;;;;;5032745;28;20049;-69
2022/12/13 02:21:18;;;;;;;44.85;20.15;;;;;;;;;;5034934;28;20052;-69
2022/12/13 02:24:07;;;;;;;100.15;26.30;;;;;;;;;;5044959;28;20469;-69
2022/12/13 02:26:33;;;;;;;67.50;24.08;;;;;;;;;;5033108;28;20049;-69
2022/12/13 02:29:05;;;;;;;58.90;21.63;;;;;;;;;;5033918;28;20049;-69
2022/12/13 02:31:44;;;;;;;54.90;23.02;;;;;;;;;;5059337;28;20095;-69
2022/12/13 02:34:16;;;;;;;84.63;29.83;;;;;;;;;;5066101;28;20040;-69
2022/12/13 02:37:01;;;;;;;54.30;21.30;;;;;;;;;;5068520;28;20037;-68
2022/12/13 02:39:30;;;;;;;51.22;20.30;;;;;;;;;;5053794;28;20474;-69
2022/12/13 02:42:01;;;;;;;45.88;18.88;;;;;;;;;;5063182;28;20036;-69
2022/12/13 02:44:34;;;;;;;43.15;17.75;;;;;;;;;;5054588;28;20102;-69
2022/12/13 02:47:00;;;;;;;42.45;20.08;;;;;;;;;;5034951;28;20044;-67
2022/12/13 02:49:29;;;;;;;39.72;18.20;;;;;;;;;;5072129;28;20086;-68
2022/12/13 02:51:56;;;;;;;40.00;18.80;;;;;;;;;;5045974;28;20048;-68
2022/12/13 02:54:23;;;;;;;43.00;18.40;;;;;;;;;;5033240;28;20074;-69
2022/12/13 02:56:53;;;;;;;35.80;16.45;;;;;;;;;;5049953;28;20517;-69
2022/12/13 02:59:19;;;;;;;37.80;17.27;;;;;;;;;;5069400;28;20041;-69
2022/12/13 03:02:04;;;;;;;40.53;19.15;;;;;;;;;;5061152;28;20040;-69
2022/12/13 03:06:28;;;;;;;37.22;17.92;;;;;;;;;;5041916;28;20827;-69
2022/12/13 03:07:31;;;;;;;56.65;21.63;;;;;;;;;;5027028;28;20477;-69
2022/12/13 03:10:12;;;;;;;46.70;19.17;;;;;;;;;;5044762;28;20047;-69
2022/12/13 03:15:43;;;;;;;42.00;17.38;;;;;;;;;;5051401;28;20084;-69
2022/12/13 03:18:14;;;;;;;43.42;19.33;;;;;;;;;;5047054;28;20494;-68
2022/12/13 03:20:44;;;;;;;43.45;18.83;;;;;;;;;;5045600;28;20041;-67
2022/12/13 03:23:11;;;;;;;52.28;21.08;;;;;;;;;;5047354;28;20075;-68
2022/12/13 03:25:37;;;;;;;44.35;18.45;;;;;;;;;;5057082;28;20080;-68
2022/12/13 03:28:03;;;;;;;46.42;19.08;;;;;;;;;;5040172;28;20412;-67
2022/12/13 03:30:32;;;;;;;42.60;18.27;;;;;;;;;;5045063;28;20036;-67
2022/12/13 03:32:59;;;;;;;36.50;18.02;;;;;;;;;;5051820;28;20098;-68
2022/12/13 03:35:25;;;;;;;41.38;17.90;;;;;;;;;;5034856;28;20049;-68
2022/12/13 03:37:51;;;;;;;42.22;18.17;;;;;;;;;;5046212;28;20045;-67
2022/12/13 03:40:18;;;;;;;38.05;16.95;;;;;;;;;;5032071;28;20053;-68
2022/12/13 03:42:44;;;;;;;36.08;17.25;;;;;;;;;;5016630;28;20072;-68
2022/12/13 03:45:10;;;;;;;34.22;16.83;;;;;;;;;;5034164;28;20047;-67
2022/12/13 03:47:36;;;;;;;37.15;16.85;;;;;;;;;;5032552;28;20068;-67
2022/12/13 03:50:03;;;;;;;40.25;18.27;;;;;;;;;;5045397;28;20469;-67
2022/12/13 03:52:29;;;;;;;36.92;16.85;;;;;;;;;;5021262;28;20127;-67
2022/12/13 03:54:55;;;;;;;35.95;16.48;;;;;;;;;;5048567;28;20033;-67
2022/12/13 03:57:21;;;;;;;34.63;16.02;;;;;;;;;;5040407;28;20036;-67
2022/12/13 03:59:47;;;;;;;35.97;15.95;;;;;;;;;;5039483;28;20113;-67
2022/12/13 04:02:27;;;;;;;43.60;17.45;;;;;;;;;;5087047;22;20442;-67
2022/12/13 04:04:53;;;;;;;33.00;15.55;;;;;;;;;;5088842;28;20052;-67
2022/12/13 04:07:19;;;;;;;35.78;17.23;;;;;;;;;;5089693;28;20048;-67
2022/12/13 04:09:45;;;;;;;32.80;16.17;;;;;;;;;;5072694;28;20507;-68
2022/12/13 04:14:56;;;;;;;38.08;16.40;;;;;;;;;;5107551;22;20056;-68
2022/12/13 04:17:22;;;;;;;39.38;17.92;;;;;;;;;;5101118;22;20054;-67
2022/12/13 04:19:48;;;;;;;35.10;17.02;;;;;;;;;;4998985;28;20052;-68
2022/12/13 04:22:14;;;;;;;37.30;16.77;;;;;;;;;;5029365;28;20038;-67
2022/12/13 04:24:40;;;;;;;40.40;17.48;;;;;;;;;;5011990;28;20038;-67
2022/12/13 04:27:06;;;;;;;48.60;18.73;;;;;;;;;;4998890;28;20041;-68
2022/12/13 04:29:32;;;;;;;42.38;19.95;;;;;;;;;;4998994;28;20100;-68
2022/12/13 04:31:58;;;;;;;42.45;18.92;;;;;;;;;;5017404;28;20041;-67
2022/12/13 04:34:24;;;;;;;45.60;19.02;;;;;;;;;;5016883;28;20038;-67
2022/12/13 04:36:50;;;;;;;44.03;21.35;;;;;;;;;;5035736;28;20507;-67
2022/12/13 04:39:16;;;;;;;41.60;19.73;;;;;;;;;;5017166;28;20057;-67
2022/12/13 04:41:43;;;;;;;44.40;19.00;;;;;;;;;;5015495;28;20129;-67
2022/12/13 04:44:10;;;;;;;54.50;21.92;;;;;;;;;;5034187;28;20045;-67
2022/12/13 04:46:36;;;;;;;53.58;18.80;;;;;;;;;;5017239;28;20041;-67
2022/12/13 04:49:02;;;;;;;46.25;21.27;;;;;;;;;;5032314;28;20096;-67
2022/12/13 04:51:28;;;;;;;52.03;19.40;;;;;;;;;;5030521;28;20049;-67
2022/12/13 04:53:54;;;;;;;40.78;17.92;;;;;;;;;;5034249;28;20043;-67
2022/12/13 04:56:20;;;;;;;41.75;18.30;;;;;;;;;;5016221;28;20083;-67
2022/12/13 04:58:46;;;;;;;47.50;20.85;;;;;;;;;;5033731;28;20073;-67
2022/12/13 05:01:12;;;;;;;44.95;18.60;;;;;;;;;;5021478;28;20087;-67
2022/12/13 05:03:39;;;;;;;40.85;18.67;;;;;;;;;;5021845;28;20043;-67
2022/12/13 05:06:09;;;;;;;46.03;20.00;;;;;;;;;;5032267;28;20045;-67
2022/12/13 05:08:36;;;;;;;43.75;19.92;;;;;;;;;;5016792;28;20125;-67
2022/12/13 05:11:02;;;;;;;45.50;19.02;;;;;;;;;;5032347;28;20041;-67
2022/12/13 05:13:28;;;;;;;49.60;21.45;;;;;;;;;;5032898;28;20049;-67
2022/12/13 05:15:55;;;;;;;39.80;18.17;;;;;;;;;;5032814;28;20124;-67
2022/12/13 05:18:21;;;;;;;41.63;20.75;;;;;;;;;;5014070;28;20556;-67
2022/12/13 05:20:49;;;;;;;39.30;17.52;;;;;;;;;;5032512;28;20051;-67
2022/12/13 05:23:15;;;;;;;37.88;16.42;;;;;;;;;;5033482;28;20052;-68
2022/12/13 05:25:42;;;;;;;38.28;18.65;;;;;;;;;;5016271;28;20068;-68
2022/12/13 05:28:08;;;;;;;37.85;17.02;;;;;;;;;;5018689;28;20053;-67
2022/12/13 05:30:34;;;;;;;39.17;17.20;;;;;;;;;;5015261;28;20139;-67
2022/12/13 05:33:00;;;;;;;36.17;16.10;;;;;;;;;;5015186;28;20045;-67
2022/12/13 05:35:26;;;;;;;35.67;16.30;;;;;;;;;;5001170;28;20056;-67
2022/12/13 05:37:52;;;;;;;35.08;15.88;;;;;;;;;;5032863;28;20498;-67
2022/12/13 05:40:18;;;;;;;35.42;15.23;;;;;;;;;;5016497;28;20109;-67
2022/12/13 05:42:44;;;;;;;37.58;17.55;;;;;;;;;;5016367;28;20091;-67
2022/12/13 05:45:10;;;;;;;35.08;16.08;;;;;;;;;;5015382;28;20099;-68
2022/12/13 05:47:36;;;;;;;41.50;17.48;;;;;;;;;;4999091;28;20041;-67
2022/12/13 05:50:02;;;;;;;40.13;17.38;;;;;;;;;;5012770;28;20041;-67
2022/12/13 05:52:28;;;;;;;41.63;19.05;;;;;;;;;;5000370;28;20251;-67
2022/12/13 05:54:55;;;;;;;43.90;18.75;;;;;;;;;;5029869;28;20046;-66
2022/12/13 05:57:21;;;;;;;44.55;19.77;;;;;;;;;;5032761;28;20047;-67
2022/12/13 05:59:47;;;;;;;42.42;19.08;;;;;;;;;;5026963;28;20538;-66
2022/12/13 06:02:14;;;;;;;38.40;18.05;;;;;;;;;;5031502;28;20088;-68
2022/12/13 06:04:40;;;;;;;48.35;18.00;;;;;;;;;;5013899;28;20385;-68
2022/12/13 06:07:06;;;;;;;45.20;20.35;;;;;;;;;;5031332;28;20045;-68
2022/12/13 06:09:32;;;;;;;46.25;20.10;;;;;;;;;;5032454;28;20054;-67
2022/12/13 06:11:58;;;;;;;46.13;21.52;;;;;;;;;;5030675;28;20046;-68
2022/12/13 06:14:24;;;;;;;50.92;19.77;;;;;;;;;;5029411;28;20095;-67
2022/12/13 06:16:53;;;;;;;43.13;19.63;;;;;;;;;;5028488;28;20485;-68
2022/12/13 06:19:23;;;;;;;51.17;20.73;;;;;;;;;;5032031;28;20490;-68
2022/12/13 06:21:49;;;;;;;52.40;21.45;;;;;;;;;;5014494;28;20045;-67
2022/12/13 06:24:16;;;;;;;42.95;20.38;;;;;;;;;;5014161;28;20060;-67
2022/12/13 06:26:43;;;;;;;50.50;20.42;;;;;;;;;;5032531;28;20401;-67
2022/12/13 06:29:09;;;;;;;40.92;19.40;;;;;;;;;;5015047;28;20052;-68
2022/12/13 06:31:35;;;;;;;53.20;22.35;;;;;;;;;;5032005;28;20049;-67
2022/12/13 06:34:02;;;;;;;53.30;22.15;;;;;;;;;;5031898;28;20477;-67
2022/12/13 06:36:28;;;;;;;50.97;21.55;;;;;;;;;;5031793;28;20482;-66
2022/12/13 06:38:54;;;;;;;46.72;22.00;;;;;;;;;;5032817;28;20056;-67
2022/12/13 06:41:20;;;;;;;51.80;21.65;;;;;;;;;;5031236;28;20044;-66
2022/12/13 06:43:47;;;;;;;52.72;21.95;;;;;;;;;;5022012;28;20397;-66
2022/12/13 06:46:13;;;;;;;49.05;20.73;;;;;;;;;;5018122;28;20434;-67
2022/12/13 06:48:39;;;;;;;45.22;20.30;;;;;;;;;;5026180;28;20107;-67
2022/12/13 06:51:06;;;;;;;43.25;19.92;;;;;;;;;;5031448;28;20041;-66
2022/12/13 06:53:32;;;;;;;54.47;21.08;;;;;;;;;;4998502;28;20045;-67
2022/12/13 06:56:03;;;;;;;46.00;20.25;;;;;;;;;;5014358;28;20065;-67
2022/12/13 06:58:29;;;;;;;70.60;25.73;;;;;;;;;;5009686;28;20060;-67
2022/12/13 07:01:21;;;;;;;86.20;28.52;;;;;;;;;;5013500;28;20041;-67
2022/12/13 07:03:47;;;;;;;87.00;29.10;;;;;;;;;;5020561;28;20128;-67
2022/12/13 07:06:13;;;;;;;77.78;27.40;;;;;;;;;;5013321;28;20079;-68
2022/12/13 07:08:40;;;;;;;74.97;26.10;;;;;;;;;;5032874;28;20085;-67
2022/12/13 07:11:06;;;;;;;67.25;23.95;;;;;;;;;;5014390;28;20045;-67
2022/12/13 07:13:33;;;;;;;49.22;19.95;;;;;;;;;;5012454;28;20045;-69
2022/12/13 07:15:59;;;;;;;52.97;23.10;;;;;;;;;;5030360;28;20456;-69
2022/12/13 07:18:26;;;;;;;44.50;20.13;;;;;;;;;;5093555;22;20048;-68
2022/12/13 07:20:52;;;;;;;39.67;19.60;;;;;;;;;;5070541;28;20045;-68
2022/12/13 07:23:18;;;;;;;47.92;19.75;;;;;;;;;;5053384;28;20094;-68
2022/12/13 07:25:52;;;;;;;47.53;21.35;;;;;;;;;;5060452;28;20045;-68
2022/12/13 07:28:18;;;;;;;49.53;21.38;;;;;;;;;;5017857;28;20048;-69
2022/12/13 07:30:44;;;;;;;61.70;22.27;;;;;;;;;;5051017;28;20445;-66
2022/12/13 07:33:10;;;;;;;55.47;23.48;;;;;;;;;;5035034;28;20543;-69
2022/12/13 07:35:36;;;;;;;51.83;20.88;;;;;;;;;;5066212;28;20056;-68
2022/12/13 07:38:02;;;;;;;47.28;21.00;;;;;;;;;;5039770;28;20045;-68
2022/12/13 07:40:28;;;;;;;59.50;23.25;;;;;;;;;;5051566;28;20045;-67
2022/12/13 07:42:55;;;;;;;51.53;21.65;;;;;;;;;;5017659;28;20141;-68
2022/12/13 07:45:22;;;;;;;47.17;20.90;;;;;;;;;;5059695;28;20049;-66
2022/12/13 07:47:48;;;;;;;47.65;20.83;;;;;;;;;;5025845;28;20053;-66
2022/12/13 07:50:15;;;;;;;50.20;21.63;;;;;;;;;;5052890;28;20397;-66
2022/12/13 07:52:41;;;;;;;51.25;21.90;;;;;;;;;;5053217;28;20135;-66
2022/12/13 07:55:08;;;;;;;52.65;22.42;;;;;;;;;;5054073;28;20438;-66
2022/12/13 07:57:34;;;;;;;51.28;21.65;;;;;;;;;;5029573;28;20049;-68
2022/12/13 08:00:00;;;;;;;50.38;21.67;;;;;;;;;;5057435;28;20102;-67
2022/12/13 08:02:26;;;;;;;53.08;23.33;;;;;;;;;;5052752;28;20484;-67
2022/12/13 08:04:52;;;;;;;55.72;22.15;;;;;;;;;;5050724;28;20045;-67
2022/12/13 08:07:19;;;;;;;57.25;23.70;;;;;;;;;;5022211;28;20049;-67
2022/12/13 08:09:45;;;;;;;51.65;21.70;;;;;;;;;;5027732;28;20075;-67
2022/12/13 08:12:11;;;;;;;57.40;22.77;;;;;;;;;;5057706;28;20489;-66
2022/12/13 08:14:37;;;;;;;51.90;23.23;;;;;;;;;;5057145;28;20131;-66
2022/12/13 08:17:03;;;;;;;52.92;23.02;;;;;;;;;;5054287;28;20053;-66
2022/12/13 08:19:29;;;;;;;56.25;21.73;;;;;;;;;;5020720;28;20049;-66
2022/12/13 08:21:55;;;;;;;49.75;21.88;;;;;;;;;;5054699;28;20053;-66
2022/12/13 08:24:22;;;;;;;49.90;22.55;;;;;;;;;;5025516;28;20044;-67
2022/12/13 08:26:48;;;;;;;52.55;24.13;;;;;;;;;;5054575;28;20049;-66
2022/12/13 08:29:14;;;;;;;45.72;18.92;;;;;;;;;;5055314;28;20046;-66
2022/12/13 08:31:40;;;;;;;57.92;23.35;;;;;;;;;;5067725;28;20044;-66
2022/12/13 08:34:07;;;;;;;59.45;24.17;;;;;;;;;;5051781;28;20109;-66
2022/12/13 08:36:33;;;;;;;50.65;22.23;;;;;;;;;;5065925;28;20115;-66
2022/12/13 08:39:01;;;;;;;51.38;23.92;;;;;;;;;;5073303;28;20444;-66
2022/12/13 08:41:28;;;;;;;53.78;22.95;;;;;;;;;;5047945;28;20049;-66
2022/12/13 08:43:54;;;;;;;53.15;23.17;;;;;;;;;;5053862;28;20464;-65
2022/12/13 08:46:20;;;;;;;52.03;23.67;;;;;;;;;;5074108;28;20052;-66
2022/12/13 08:48:46;;;;;;;51.92;24.65;;;;;;;;;;5064345;28;20045;-67
2022/12/13 08:51:14;;;;;;;53.10;24.77;;;;;;;;;;5036626;28;20127;-66
2022/12/13 08:53:40;;;;;;;64.50;23.73;;;;;;;;;;5052682;28;20056;-66
2022/12/13 08:56:09;;;;;;;54.63;24.08;;;;;;;;;;5055536;28;20059;-67
2022/12/13 08:58:35;;;;;;;54.97;25.45;;;;;;;;;;5073968;28;20131;-67
2022/12/13 09:01:05;;;;;;;53.15;23.83;;;;;;;;;;5073899;28;20124;-67
2022/12/13 09:03:31;;;;;;;55.65;25.83;;;;;;;;;;5039945;28;20098;-67
2022/12/13 09:05:57;;;;;;;55.22;26.02;;;;;;;;;;5073025;28;20048;-67
2022/12/13 09:08:23;;;;;;;53.92;23.48;;;;;;;;;;5055657;28;20079;-67
2022/12/13 09:10:59;;;;;;;58.55;25.65;;;;;;;;;;5073777;28;20127;-67
2022/12/13 09:13:25;;;;;;;61.42;25.50;;;;;;;;;;5073665;28;20048;-67
2022/12/13 09:15:51;;;;;;;55.22;24.33;;;;;;;;;;5038679;28;20051;-67
2022/12/13 09:18:17;;;;;;;58.83;25.45;;;;;;;;;;5073882;28;20045;-67
2022/12/13 09:20:43;;;;;;;58.88;25.92;;;;;;;;;;5073665;28;20460;-67
2022/12/13 09:23:10;;;;;;;60.38;26.27;;;;;;;;;;5053554;28;20129;-67
2022/12/13 09:25:36;;;;;;;60.53;26.08;;;;;;;;;;5055746;28;20169;-67
2022/12/13 09:28:02;;;;;;;52.42;24.65;;;;;;;;;;5072530;28;20478;-67
2022/12/13 09:30:28;;;;;;;57.45;26.35;;;;;;;;;;5073841;28;20115;-67
2022/12/13 09:32:55;;;;;;;54.88;26.90;;;;;;;;;;5073390;28;20058;-67
2022/12/13 09:35:21;;;;;;;51.15;23.75;;;;;;;;;;5073186;28;20052;-67
2022/12/13 09:37:47;;;;;;;52.10;23.58;;;;;;;;;;5054988;28;20094;-67
2022/12/13 09:40:19;;;;;;;67.47;26.40;;;;;;;;;;5072825;28;20381;-67
2022/12/13 09:42:48;;;;;;;58.13;26.17;;;;;;;;;;5072023;28;20105;-67
2022/12/13 09:45:14;;;;;;;56.80;25.77;;;;;;;;;;5072010;28;20040;-67
2022/12/13 09:47:42;;;;;;;55.63;25.00;;;;;;;;;;5039162;28;20512;-67
2022/12/13 09:50:12;;;;;;;58.25;26.58;;;;;;;;;;5053887;28;20044;-66
2022/12/13 09:52:39;;;;;;;58.20;24.90;;;;;;;;;;5070075;28;20040;-67
2022/12/13 09:55:16;;;;;;;63.10;27.02;;;;;;;;;;5072310;28;20127;-67
2022/12/13 09:57:43;;;;;;;61.58;26.75;;;;;;;;;;5054479;28;20489;-67
2022/12/13 10:00:12;;;;;;;57.95;25.08;;;;;;;;;;5036483;28;20045;-67
2022/12/13 10:02:52;;;;;;;50.78;23.63;;;;;;;;;;5053182;28;20428;-67
2022/12/13 10:05:20;;;;;;;60.67;26.97;;;;;;;;;;5035703;28;20045;-67
2022/12/13 10:07:47;;;;;;;59.28;26.67;;;;;;;;;;5060593;28;20049;-67
2022/12/13 10:10:14;;;;;;;57.95;24.30;;;;;;;;;;5072657;28;20127;-67
2022/12/13 10:12:43;;;;;;;55.60;24.95;;;;;;;;;;5059203;28;20052;-67
2022/12/13 10:15:10;;;;;;;59.70;25.33;;;;;;;;;;5061570;28;20082;-67
2022/12/13 10:17:38;;;;;;;49.65;25.30;;;;;;;;;;5054896;28;20131;-67
2022/12/13 10:20:05;;;;;;;53.38;23.38;;;;;;;;;;5037228;28;20091;-67
2022/12/13 10:22:31;;;;;;;59.38;26.48;;;;;;;;;;5060699;28;20129;-67
2022/12/13 10:25:02;;;;;;;56.05;25.33;;;;;;;;;;5054413;28;20106;-67
2022/12/13 10:27:39;;;;;;;61.03;26.23;;;;;;;;;;5070301;28;20135;-67
2022/12/13 10:30:07;;;;;;;56.50;25.83;;;;;;;;;;5054374;28;20058;-67
2022/12/13 10:32:42;;;;;;;49.63;24.73;;;;;;;;;;5051470;28;20090;-67
2022/12/13 10:35:12;;;;;;;54.05;23.83;;;;;;;;;;5072332;28;20520;-67
2022/12/13 10:37:38;;;;;;;54.08;26.27;;;;;;;;;;5054926;28;20055;-67
2022/12/13 10:40:04;;;;;;;52.55;23.90;;;;;;;;;;5023603;28;20072;-67
2022/12/13 10:42:30;;;;;;;59.25;25.67;;;;;;;;;;5093645;22;20496;-66
2022/12/13 10:45:13;;;;;;;56.85;26.15;;;;;;;;;;5051658;28;20063;-66
2022/12/13 10:47:41;;;;;;;61.33;28.80;;;;;;;;;;5056625;28;20127;-65
2022/12/13 10:50:20;;;;;;;66.38;28.77;;;;;;;;;;5045876;28;20124;-66
2022/12/13 10:52:47;;;;;;;55.90;27.83;;;;;;;;;;5034390;28;20048;-66
2022/12/13 10:55:25;;;;;;;60.13;27.27;;;;;;;;;;5056516;28;20045;-66
2022/12/13 10:57:55;;;;;;;57.00;26.08;;;;;;;;;;5060953;28;20089;-67
2022/12/13 11:00:33;;;;;;;61.45;28.13;;;;;;;;;;5067004;28;20040;-67
2022/12/13 11:02:59;;;;;;;59.47;28.67;;;;;;;;;;5070688;28;20864;-67
2022/12/13 11:05:27;;;;;;;55.78;27.08;;;;;;;;;;5057972;28;20083;-67
2022/12/13 11:07:56;;;;;;;59.95;27.75;;;;;;;;;;5070803;28;20094;-67
2022/12/13 11:10:27;;;;;;;57.28;26.08;;;;;;;;;;5071509;28;20040;-67
2022/12/13 11:13:00;;;;;;;;;;;-0.40;99.90;;;;;;5046258;28;20175;-67
2022/12/13 11:15:28;;;;;;;54.65;25.35;;;;;;;;;;5072057;28;20330;-67
2022/12/13 11:18:14;;;;;;;49.15;24.23;;;;;;;;;;5071523;28;20045;-67
2022/12/13 11:20:45;;;;;;;56.42;25.42;;;;;;;;;;5035855;28;20386;-67
2022/12/13 11:23:22;;;;;;;58.92;25.98;;;;;;;;;;5044193;28;20040;-67
2022/12/13 11:25:48;;;;;;;61.88;26.92;;;;;;;;;;5051689;28;20072;-67
2022/12/13 11:28:26;;;;;;;59.78;26.77;;;;;;;;;;5070051;28;20485;-68
2022/12/13 11:31:37;;;;;;;53.25;25.33;;;0.10;99.90;;;;;;5030333;28;20041;-67
2022/12/13 11:34:09;;;;;;;;;;;0.10;99.90;;;;;;5042995;28;20134;-67
2022/12/13 11:36:42;;;;;;;49.63;25.15;;;;;;;;;;5070775;28;19925;-67
2022/12/13 11:39:16;;;;;;;57.60;25.80;;;;;;;;;;5070931;28;20055;-66
2022/12/13 11:42:03;;;;;;;48.38;23.50;;;;;;;;;;5075463;28;20060;-66
2022/12/13 11:44:29;;;;;;;49.30;22.33;;;;;;;;;;5073984;28;20056;-66
2022/12/13 11:46:57;;;;;;;42.85;23.13;;;;;;;;;;5074841;28;20086;-67
2022/12/13 11:49:29;;;;;;;49.80;22.25;;;;;;;;;;5074699;28;20044;-67
2022/12/13 11:52:02;;;;;;;38.58;21.60;;;;;;;;;;5074748;28;20056;-67
2022/12/13 11:54:31;;;;;;;43.65;21.73;;;;;;;;;;5057691;28;20093;-67
2022/12/13 11:56:58;;;;;;;43.53;20.88;;;;;;;;;;5075425;28;20511;-67
2022/12/13 11:59:33;;;;;;;46.30;22.58;;;;;;;;;;5072988;28;20389;-67
2022/12/13 12:02:12;;;;;;;41.85;22.33;;;;;;;;;;5073731;28;20873;-67
2022/12/13 12:04:51;;;;;;;49.53;24.17;;;;;;;;;;5067465;28;20055;-68
2022/12/13 12:07:27;;;;;;;49.03;25.33;;;;;;;;;;5049090;28;20492;-67
2022/12/13 12:10:13;;;;;;;46.50;24.00;;;1.00;99.90;;;;;;5056301;28;20049;-67
2022/12/13 12:12:40;;;;;;;49.65;25.02;;;;;;;;;;5070317;28;20059;-67
2022/12/13 12:15:06;;;;;;;46.50;23.50;;;;;;;;;;5039756;28;20055;-67
2022/12/13 12:17:33;;;;;;;47.78;23.92;;;;;;;;;;5056043;28;20048;-67
2022/12/13 12:19:59;;;;;;;42.28;22.40;;;;;;;;;;5056501;28;20041;-68
2022/12/13 12:22:25;;;;;;;43.72;23.77;;;;;;;;;;5057342;28;20049;-67
2022/12/13 12:25:19;;;;;;;46.33;22.67;;;1.50;99.90;;;;;;5073454;28;20127;-67
2022/12/13 12:27:48;;;;;;;49.30;22.98;;;;;;;;;;5072878;28;20048;-67
2022/12/13 12:30:20;;;;;;;43.03;21.77;;;;;;;;;;5055546;28;20040;-67
2022/12/13 12:33:07;;;;;;;42.65;22.00;;;1.20;99.90;;;;;;5055249;28;20208;-68
2022/12/13 12:35:47;;;;;;;43.38;21.75;;;;;;;;;;5072054;28;20040;-67
2022/12/13 12:38:32;;;;;;;42.65;23.08;;;;;;;;;;5056541;28;20044;-68
2022/12/13 12:41:01;;;;;;;41.58;21.33;;;;;;;;;;5051578;28;20036;-68
2022/12/13 12:43:40;;;;;;;38.42;20.75;;;;;;;;;;5073628;28;20135;-68
2022/12/13 12:46:13;;;;;;;40.97;23.48;;;;;;;;;;5056887;28;20048;-68
2022/12/13 12:48:57;;;;;;;39.85;21.05;;;;;;;;;;5056655;28;20084;-67
2022/12/13 12:51:27;;;;;;;36.13;18.15;;;;;;;;;;5039778;28;20499;-68
2022/12/13 12:54:09;;;;;;;37.90;19.40;;;;;;;;;;5039279;28;20135;-68
2022/12/13 12:56:35;;;;;;;47.00;23.50;;;;;;;;;;5056948;28;20131;-68
2022/12/13 12:59:09;;;;;;;49.97;25.65;;;;;;;;;;5056545;28;20044;-68
2022/12/13 13:01:35;;;;;;;51.25;24.45;;;;;;;;;;5074647;28;20508;-68
2022/12/13 13:04:05;;;;;;;58.10;26.80;;;;;;;;;;5039386;28;20087;-68
2022/12/13 13:06:54;;;;;;;60.30;27.95;;;;;;;;;;5056347;28;20135;-68
2022/12/13 13:09:20;;;;;;;62.05;26.73;;;;;;;;;;5042973;28;20049;-68
2022/12/13 13:11:47;;;;;;;52.38;25.45;;;;;;;;;;5039064;28;20059;-69
2022/12/13 13:14:28;;;;;;;52.45;24.33;;;;;;;;;;5074022;28;20128;-68
2022/12/13 13:16:55;;;;;;;46.78;24.15;;;;;;;;;;5074040;28;20044;-68
2022/12/13 13:19:20;;;;;;;46.30;22.35;;;;;;;;;;5056062;28;20400;-68
2022/12/13 13:21:51;;;;;;;44.35;22.00;;;;;;;;;;5056060;28;20037;-68
2022/12/13 13:24:21;;;;;;;;;;;0.50;99.90;;;;;;5074175;28;20074;-68
2022/12/13 13:26:48;;;;;;;44.10;21.75;;;;;;;;;;5073337;28;19920;-68
2022/12/13 13:29:24;;;;;;;52.58;24.20;;;;;;;;;;5056216;28;20584;-68
2022/12/13 13:31:53;;;;;;;56.50;25.38;;;;;;;;;;5039518;28;20080;-68
2022/12/13 13:34:22;;;;;;;61.28;27.35;;;;;;;;;;5055344;28;20040;-69
2022/12/13 13:36:51;;;;;;;59.83;25.75;;;;;;;;;;5039068;28;20052;-69
2022/12/13 13:39:18;;;;;;;54.75;24.65;;;;;;;;;;5073857;28;20048;-68
2022/12/13 13:41:56;;;;;;;50.10;24.35;;;;;;;;;;5054749;28;20148;-68
2022/12/13 13:44:33;;;;;;;46.78;21.83;;;;;;;;;;5055669;28;20056;-68
2022/12/13 13:47:17;;;;;;;42.92;20.38;;;1.00;99.90;;;;;;5054929;28;20048;-68
2022/12/13 13:49:46;;;;;;;33.63;18.92;;;;;;;;;;5055803;28;20051;-68
2022/12/13 13:52:23;;;;;;;35.30;18.67;;;;;;;;;;5073344;28;20051;-68
2022/12/13 13:54:49;;;;;;;36.83;17.83;;;;;;;;;;5071817;28;20404;-68
2022/12/13 13:57:15;;;;;;;32.42;17.80;;;;;;;;;;5072640;28;20489;-68
2022/12/13 14:00:02;;;;;;;36.83;18.33;;;;;;;;;;5055423;28;20048;-68
2022/12/13 14:02:53;;;;;;;39.38;18.65;;;;;;;;;;5054871;28;20485;-68
2022/12/13 14:05:19;;;;;;;;;;;;;;;;;;5073539;28;20048;-68
2022/12/13 14:07:54;;;;;;;34.47;18.40;;;;;;;;;;5054694;28;19920;-68
2022/12/13 14:10:39;;;;;;;35.65;19.42;;;;;;;;;;5054985;28;20044;-68
2022/12/13 14:13:43;;;;;;;37.83;19.42;;;0.50;99.90;;;;;;5072721;28;20047;-68
2022/12/13 14:16:15;;;;;;;40.40;20.17;;;;;;;;;;5054947;28;20056;-68
2022/12/13 14:19:07;;;;;;;39.03;20.45;;;;;;;;;;5054564;28;20508;-68
2022/12/13 14:21:51;;;;;;;39.40;20.40;;;;;;;;;;5054522;28;20051;-68
2022/12/13 14:24:23;;;;;;;37.15;19.65;;;;;;;;;;5055009;28;20106;-68
2022/12/13 14:26:52;;;;;;;40.28;20.45;;;;;;;;;;5072338;28;20049;-68
2022/12/13 14:29:23;;;;;;;35.78;18.60;;;;;;;;;;5055197;28;20041;-68
2022/12/13 14:31:49;;;;;;;38.92;19.83;;;;;;;;;;5071380;28;20070;-68
2022/12/13 14:34:18;;;;;;;39.70;19.10;;;;;;;;;;5054570;28;20048;-68
2022/12/13 14:36:53;;;;;;;41.25;19.00;;;;;;;;;;5069621;28;20500;-68